KLPC

Lompoc Airport

Lompoc, California, USA
METAR KLPC 252156Z AUTO 27016G21KT 10SM CLR 18/11 A3013 RMK AO2 SLP208 T01830106
Observed Flight Rules
May-25 @ 21:56 UTC (42 minutes ago) Visual Flight Rules
Wind Visibility Clouds
270° at 16 knots
 Gusting to 21 knots
10 miles
  • Clear skies
Temperatures Readings
Current 18°C / 64°F
Dewpoint 11°C / 52°F
Humidity 64%
Altimeter 30.13" Hg
Pressure 1020.8 hPa
Elevation 27
METAR KLPC 252156Z AUTO 27016G21KT 10SM CLR 18/11 A3013 RMK AO2 SLP208 T01830106
Observed Flight Rules
May-25 @ 21:56 UTC
(42 minutes ago)
VFR
Wind Visibility
270° at 16 knots
 Gusting to 21 knots
10 miles
Clouds
  • Clear skies
Temperature Dewpoint
18°C / 64°F 11°C / 52°F
Humidity Altimeter Pressure
64% 30.13" Hg 1020.8 hPa